Time;durP1;ratioP1;P1;durP2;ratioP2;P2;SDS_P1;SDS_P2;PMS_P1;PMS_P2;Temp;Humidity;BMP_temperature;BMP_pressure;BME280_temperature;BME280_humidity;BME280_pressure;Samples;Min_cycle;Max_cycle;Signal;HPM_P1;HPM_P2
2023/03/27 00:01:45;;;;;;;;;;;6.80;97.50;;;;;;5069294;28;20617;-68
2023/03/27 00:04:14;;;;;;;;;;;6.70;97.40;;;;;;5065395;28;20016;-68
2023/03/27 00:06:40;;;;;;;;;;;6.80;97.40;;;;;;5069624;28;19935;-68
2023/03/27 00:09:07;;;;;;;;;;;6.70;97.50;;;;;;5065030;28;20377;-68
2023/03/27 00:11:33;;;;;;;;;;;6.70;97.40;;;;;;5067719;28;19995;-68
2023/03/27 00:13:58;;;;;;;;;;;6.70;97.40;;;;;;5064265;28;20455;-68
2023/03/27 00:16:25;;;;;;;;;;;6.70;97.40;;;;;;5069135;28;19999;-68
2023/03/27 00:18:52;;;;;;;;;;;6.70;97.50;;;;;;5052526;28;20262;-68
2023/03/27 00:21:18;;;;;;;;;;;6.60;97.50;;;;;;5066718;28;19912;-68
2023/03/27 00:23:43;;;;;;;;;;;6.70;97.50;;;;;;5066181;28;19920;-68
2023/03/27 00:26:10;;;;;;;;;;;6.60;97.50;;;;;;5067025;28;19977;-68
2023/03/27 00:28:36;;;;;;;;;;;6.60;97.50;;;;;;5067437;28;19912;-68
2023/03/27 00:31:02;;;;;;;;;;;6.60;97.40;;;;;;5066408;28;19920;-67
2023/03/27 00:33:27;;;;;;;;;;;6.60;97.50;;;;;;5067494;28;19912;-68
2023/03/27 00:35:53;;;;;;;;;;;6.60;97.50;;;;;;5066778;28;19912;-68
2023/03/27 00:38:18;;;;;;;;;;;6.60;97.50;;;;;;5067134;28;20019;-68
2023/03/27 00:40:46;;;;;;;;;;;6.50;97.40;;;;;;5066552;28;20729;-68
2023/03/27 00:43:19;;;;;;;;;;;6.50;97.40;;;;;;5067024;28;20359;-67
2023/03/27 00:45:46;;;;;;;;;;;6.50;97.50;;;;;;5060081;28;20606;-68
2023/03/27 00:48:11;;;;;;;;;;;6.50;97.40;;;;;;5066908;28;19912;-67
2023/03/27 00:50:39;;;;;;;;;;;6.50;97.40;;;;;;5066140;28;20555;-68
2023/03/27 00:53:07;;;;;;;;;;;6.50;97.30;;;;;;5066051;28;19912;-68
2023/03/27 00:55:35;;;;;;;;;;;6.50;97.40;;;;;;5066477;28;20300;-68
2023/03/27 00:58:03;;;;;;;;;;;6.40;97.40;;;;;;5057110;28;19917;-68
2023/03/27 01:00:29;;;;;;;;;;;6.40;97.40;;;;;;5066160;28;19967;-68
2023/03/27 01:02:55;;;;;;;;;;;6.40;97.30;;;;;;5066733;28;19965;-68
2023/03/27 01:05:21;;;;;;;;;;;6.40;97.40;;;;;;5065911;28;19920;-67
2023/03/27 01:07:47;;;;;;;;;;;6.40;97.40;;;;;;5067565;28;19916;-67
2023/03/27 01:10:14;;;;;;;;;;;6.40;97.50;;;;;;5064835;28;19912;-67
2023/03/27 01:12:42;;;;;;;;;;;6.40;97.40;;;;;;5066514;28;19957;-68
2023/03/27 01:15:08;;;;;;;;;;;6.40;97.30;;;;;;5064267;28;19934;-68
2023/03/27 01:17:55;;;;;;;;;;;6.40;97.40;;;;;;5068349;28;19916;-67
2023/03/27 01:20:41;;;;;;;;;;;6.30;97.30;;;;;;5068382;28;19917;-68
2023/03/27 01:23:18;;;;;;;;;;;6.30;97.30;;;;;;5065616;28;20350;-68
2023/03/27 01:25:49;;;;;;;;;;;6.30;97.30;;;;;;5064777;28;19908;-67
2023/03/27 01:28:22;;;;;;;;;;;6.30;97.40;;;;;;5066208;28;19912;-68
2023/03/27 01:30:47;;;;;;;;;;;6.30;97.40;;;;;;5059655;28;20011;-68
2023/03/27 01:33:17;;;;;;;;;;;6.20;97.30;;;;;;5055658;28;20385;-67
2023/03/27 01:35:51;;;;;;;;;;;6.20;97.40;;;;;;5065658;28;20542;-68
2023/03/27 01:38:27;;;;;;;;;;;6.20;97.30;;;;;;5055731;28;19959;-68
2023/03/27 01:40:55;;;;;;;;;;;6.20;97.30;;;;;;5065670;28;19919;-68
2023/03/27 01:43:32;;;;;;;;;;;6.20;97.30;;;;;;5066161;28;19924;-68
2023/03/27 01:46:05;;;;;;;;;;;6.20;97.20;;;;;;5055777;28;19912;-67
2023/03/27 01:48:34;;;;;;;;;;;6.20;97.30;;;;;;5058849;28;19920;-67
2023/03/27 01:51:06;;;;;;;;;;;6.20;97.30;;;;;;5065157;28;20272;-67
2023/03/27 01:53:39;;;;;;;;;;;6.10;97.30;;;;;;5058868;28;19916;-67
2023/03/27 01:56:17;;;;;;;;;;;6.10;97.30;;;;;;5065435;28;19916;-67
2023/03/27 01:58:45;;;;;;;;;;;6.10;97.30;;;;;;5066074;28;20477;-67
2023/03/27 02:01:13;;;;;;;;;;;6.10;97.30;;;;;;5060282;28;19913;-67
2023/03/27 02:03:44;;;;;;;;;;;6.10;97.30;;;;;;5066155;28;19912;-67
2023/03/27 02:06:09;;;;;;;;;;;6.10;97.30;;;;;;5065852;28;19944;-68
2023/03/27 02:09:02;;;;;;;;;;;6.10;97.40;;;;;;5053345;28;20379;-67
2023/03/27 02:11:30;;;;;;;;;;;6.10;97.40;;;;;;5063078;28;19923;-68
2023/03/27 02:14:04;;;;;;;;;;;6.10;97.30;;;;;;5063943;28;20020;-67
2023/03/27 02:16:32;;;;;;;;;;;6.00;97.30;;;;;;5062210;28;19916;-68
2023/03/27 02:19:00;;;;;;;;;;;6.00;97.40;;;;;;5063992;28;20436;-68
2023/03/27 02:21:26;;;;;;;;;;;6.00;97.30;;;;;;5067551;28;19919;-67
2023/03/27 02:23:52;;;;;;;;;;;6.00;97.30;;;;;;5066151;28;20380;-68
2023/03/27 02:26:17;;;;;;;;;;;6.00;97.30;;;;;;5070703;28;19920;-67
2023/03/27 02:28:49;;;;;;;;;;;6.00;97.20;;;;;;5069864;28;19909;-68
2023/03/27 02:31:14;;;;;;;;;;;6.00;97.20;;;;;;5070037;28;19955;-67
2023/03/27 02:33:59;;;;;;;;;;;5.90;97.30;;;;;;5069783;28;19948;-67
2023/03/27 02:36:43;;;;;;;;;;;5.90;97.30;;;;;;5071309;28;19955;-68
2023/03/27 02:39:11;;;;;;;;;;;6.00;97.30;;;;;;5066918;28;19913;-67
2023/03/27 02:41:37;;;;;;;;;;;5.90;97.20;;;;;;5071014;28;19919;-68
2023/03/27 02:44:05;;;;;;;;;;;5.90;97.20;;;;;;5066943;28;20433;-67
2023/03/27 02:46:34;;;;;;;;;;;5.90;97.30;;;;;;5071298;28;20016;-67
2023/03/27 02:49:06;;;;;;;;;;;5.90;97.20;;;;;;5066780;28;20441;-68
2023/03/27 02:51:37;;;;;;;;;;;5.90;97.20;;;;;;5065470;28;20539;-68
2023/03/27 02:54:05;;;;;;;;;;;5.90;97.20;;;;;;5066008;28;21072;-68
2023/03/27 02:56:33;;;;;;;;;;;5.90;97.20;;;;;;5071340;28;19909;-68
2023/03/27 02:59:02;;;;;;;;;;;5.90;97.20;;;;;;5071946;28;19916;-67
2023/03/27 03:01:31;;;;;;;;;;;5.80;97.20;;;;;;5076024;28;19920;-67
2023/03/27 03:04:02;;;;;;;;;;;5.80;97.20;;;;;;5075495;28;19916;-68
2023/03/27 03:06:30;;;;;;;;;;;5.80;97.20;;;;;;5075491;28;19916;-68
2023/03/27 03:09:00;;;;;;;;;;;5.80;97.20;;;;;;5075339;28;19919;-68
2023/03/27 03:11:27;;;;;;;;;;;5.80;97.20;;;;;;5073735;28;20007;-67
2023/03/27 03:13:53;;;;;;;;;;;5.80;97.20;;;;;;5068458;28;19912;-68
2023/03/27 03:16:18;;;;;;;;;;;5.80;97.20;;;;;;5069537;28;19913;-68
2023/03/27 03:18:44;;;;;;;;;;;5.80;97.20;;;;;;5070730;28;20727;-68
2023/03/27 03:21:09;;;;;;;;;;;5.80;97.20;;;;;;5067934;28;19938;-68
2023/03/27 03:23:35;;;;;;;;;;;5.80;97.20;;;;;;5067734;28;19924;-68
2023/03/27 03:26:01;;;;;;;;;;;5.70;97.20;;;;;;5067867;28;19916;-67
2023/03/27 03:28:27;;;;;;;;;;;5.70;97.20;;;;;;5068648;28;19912;-67
2023/03/27 03:30:53;;;;;;;;;;;5.70;97.20;;;;;;5068114;28;19920;-67
2023/03/27 03:33:18;;;;;;;;;;;5.70;97.20;;;;;;5068363;28;19965;-68
2023/03/27 03:35:45;;;;;;;;;;;5.70;97.20;;;;;;5067625;28;19908;-68
2023/03/27 03:38:11;;;;;;;;;;;5.70;97.20;;;;;;5068355;28;19921;-68
2023/03/27 03:40:36;;;;;;;;;;;5.60;97.20;;;;;;5063180;28;19927;-68
2023/03/27 03:43:02;;;;;;;;;;;5.60;97.20;;;;;;5068073;28;19970;-68
2023/03/27 03:45:27;;;;;;;;;;;5.60;97.20;;;;;;5067238;28;19916;-68
2023/03/27 03:47:53;;;;;;;;;;;5.60;97.20;;;;;;5067825;28;20754;-67
2023/03/27 03:50:18;;;;;;;;;;;5.60;97.20;;;;;;5065821;28;19918;-67
2023/03/27 03:52:44;;;;;;;;;;;5.60;97.20;;;;;;5068763;28;19912;-67
2023/03/27 03:55:11;;;;;;;;;;;5.60;97.50;;;;;;5065904;28;19912;-68
2023/03/27 03:57:36;;;;;;;;;;;5.60;97.20;;;;;;5069885;28;19995;-67
2023/03/27 04:00:07;;;;;;;;;;;5.60;97.20;;;;;;5055374;28;20023;-68
2023/03/27 04:02:33;;;;;;;;;;;5.60;97.20;;;;;;5059907;28;19909;-67
2023/03/27 04:04:59;;;;;;;;;;;5.50;97.10;;;;;;5065615;28;19966;-68
2023/03/27 04:07:30;;;;;;;;;;;5.50;97.20;;;;;;5069673;28;19916;-67
2023/03/27 04:09:58;;;;;;;;;;;5.50;97.20;;;;;;5065009;28;19912;-68
2023/03/27 04:12:25;;;;;;;;;;;5.50;97.20;;;;;;5058089;28;20351;-67
2023/03/27 04:14:51;;;;;;;;;;;5.50;97.10;;;;;;5065001;28;19998;-67
2023/03/27 04:17:17;;;;;;;;;;;5.50;97.20;;;;;;5069837;28;19931;-68
2023/03/27 04:19:45;;;;;;;;;;;5.50;97.20;;;;;;5065675;28;20470;-67
2023/03/27 04:22:11;;;;;;;;;;;5.40;97.20;;;;;;5069173;28;20292;-67
2023/03/27 04:24:37;;;;;;;;;;;5.40;97.20;;;;;;5064409;28;19919;-68
2023/03/27 04:27:03;;;;;;;;;;;5.50;97.20;;;;;;5069405;28;19913;-67
2023/03/27 04:29:33;;;;;;;;;;;5.40;97.10;;;;;;5064961;28;19912;-68
2023/03/27 04:31:58;;;;;;;;;;;5.40;97.20;;;;;;5068904;28;19913;-67
2023/03/27 04:34:24;;;;;;;;;;;5.40;97.20;;;;;;5065005;28;19908;-68
2023/03/27 04:36:50;;;;;;;;;;;5.40;97.10;;;;;;5049097;28;19944;-68
2023/03/27 04:39:19;;;;;;;;;;;5.40;97.20;;;;;;5064791;28;20317;-67
2023/03/27 04:41:48;;;;;;;;;;;5.40;97.20;;;;;;5068613;28;19919;-68
2023/03/27 04:44:16;;;;;;;;;;;5.40;97.20;;;;;;5064319;28;19924;-67
2023/03/27 04:46:43;;;;;;;;;;;5.40;97.20;;;;;;5068100;28;19917;-68
2023/03/27 04:49:08;;;;;;;;;;;5.40;97.20;;;;;;5064593;28;19916;-67
2023/03/27 04:51:34;;;;;;;;;;;5.40;97.20;;;;;;5068148;28;19912;-68
2023/03/27 04:54:03;;;;;;;;;;;5.40;97.20;;;;;;5063202;28;19950;-68
2023/03/27 04:56:29;;;;;;;;;;;5.40;97.20;;;;;;5062326;28;19912;-67
2023/03/27 04:58:55;;;;;;;;;;;5.40;97.20;;;;;;5063950;28;19919;-68
2023/03/27 05:01:21;;;;;;;;;;;5.30;97.20;;;;;;5066272;28;19917;-68
2023/03/27 05:03:48;;;;;;;;;;;5.40;97.20;;;;;;5065370;28;19912;-68
2023/03/27 05:06:14;;;;;;;;;;;5.30;97.20;;;;;;5057163;28;20269;-68
2023/03/27 05:08:39;;;;;;;;;;;5.30;97.20;;;;;;5066553;28;19912;-68
2023/03/27 05:11:06;;;;;;;;;;;5.40;97.30;;;;;;5046548;28;19935;-68
2023/03/27 05:13:32;;;;;;;;;;;5.30;97.30;;;;;;5066453;28;19912;-68
2023/03/27 05:15:58;;;;;;;;;;;5.40;97.30;;;;;;5066256;28;19939;-67
2023/03/27 05:18:23;;;;;;;;;;;5.40;97.30;;;;;;5066492;28;20006;-67
2023/03/27 05:20:49;;;;;;;;;;;5.30;97.20;;;;;;5065812;28;19920;-68
2023/03/27 05:23:15;;;;;;;;;;;5.30;97.20;;;;;;5055029;28;20423;-68
2023/03/27 05:25:41;;;;;;;;;;;5.30;97.20;;;;;;5054497;28;19920;-67
2023/03/27 05:28:07;;;;;;;;;;;5.30;97.20;;;;;;5066130;28;19950;-68
2023/03/27 05:30:32;;;;;;;;;;;5.30;97.20;;;;;;5065573;28;19913;-68
2023/03/27 05:32:58;;;;;;;;;;;5.30;97.20;;;;;;5066386;28;20276;-67
2023/03/27 05:35:24;;;;;;;;;;;5.30;97.20;;;;;;5065774;28;19946;-67
2023/03/27 05:37:51;;;;;;;;;;;5.30;97.30;;;;;;5057656;28;19951;-68
2023/03/27 05:40:21;;;;;;;;;;;5.30;97.30;;;;;;5045464;28;19908;-67
2023/03/27 05:42:47;;;;;;;;;;;5.30;97.30;;;;;;5067065;28;19958;-67
2023/03/27 05:45:13;;;;;;;;;;;5.30;97.30;;;;;;5066295;28;19916;-68
2023/03/27 05:47:45;;;;;;;;;;;5.30;97.30;;;;;;5067777;28;20331;-68
2023/03/27 05:50:10;;;;;;;;;;;5.30;97.30;;;;;;5064143;28;19912;-67
2023/03/27 05:52:36;;;;;;;;;;;5.40;97.30;;;;;;5067462;28;19919;-68
2023/03/27 05:55:02;;;;;;;;;;;5.40;97.40;;;;;;5063186;28;19922;-68
2023/03/27 05:57:27;;;;;;;;;;;5.40;97.30;;;;;;5067775;28;19916;-68
2023/03/27 05:59:53;;;;;;;;;;;5.40;97.30;;;;;;5065415;28;20628;-67
2023/03/27 06:02:18;;;;;;;;;;;5.30;97.30;;;;;;5068329;28;19924;-68
2023/03/27 06:04:44;;;;;;;;;;;5.40;97.30;;;;;;5053231;28;20336;-68
2023/03/27 06:07:11;;;;;;;;;;;5.40;97.30;;;;;;5067554;28;19912;-67
2023/03/27 06:09:37;;;;;;;;;;;5.40;97.30;;;;;;5063210;28;19913;-67
2023/03/27 06:12:04;;;;;;;;;;;5.40;97.30;;;;;;5066174;28;20371;-67
2023/03/27 06:14:30;;;;;;;;;;;5.40;97.30;;;;;;5062264;28;19916;-68
2023/03/27 06:16:56;;;;;;;;;;;5.40;97.40;;;;;;5066703;28;20466;-68
2023/03/27 06:19:23;;;;;;;;;;;5.40;97.30;;;;;;5063370;28;19970;-68
2023/03/27 06:21:49;;;;;;;;;;;5.40;97.30;;;;;;5067293;28;20400;-67
2023/03/27 06:24:15;;;;;;;;;;;5.40;97.40;;;;;;5051374;28;19959;-68
2023/03/27 06:26:41;;;;;;;;;;;5.40;97.40;;;;;;5067389;28;19912;-68
2023/03/27 06:29:06;;;;;;;;;;;5.40;97.40;;;;;;5068911;28;20111;-68
2023/03/27 06:31:32;;;;;;;;;;;5.40;97.40;;;;;;5068057;28;19920;-68
2023/03/27 06:33:58;;;;;;;;;;;5.40;97.60;;;;;;5065710;28;19916;-69
2023/03/27 06:36:23;;;;;;;;;;;5.40;97.30;;;;;;5057275;28;19921;-68
2023/03/27 06:38:49;;;;;;;;;;;5.40;97.30;;;;;;5064665;28;19952;-68
2023/03/27 06:41:15;;;;;;;;;;;5.40;97.30;;;;;;5059537;28;19939;-67
2023/03/27 06:43:40;;;;;;;;;;;5.40;97.40;;;;;;5064891;28;19958;-68
2023/03/27 06:46:06;;;;;;;;;;;5.40;97.40;;;;;;5066710;28;19912;-67
2023/03/27 06:48:31;;;;;;;;;;;5.40;97.30;;;;;;5065084;28;19956;-67
2023/03/27 06:50:56;;;;;;;;;;;5.50;97.30;;;;;;5066471;28;19968;-67
2023/03/27 06:53:22;;;;;;;;;;;5.50;97.30;;;;;;5064690;28;19919;-68
2023/03/27 06:55:49;;;;;;;;;;;5.40;97.60;;;;;;5067110;28;19912;-67
2023/03/27 06:58:16;;;;;;;;;;;5.50;97.30;;;;;;5064832;28;19909;-67
2023/03/27 07:00:42;;;;;;;;;;;5.50;97.30;;;;;;5064285;28;19920;-68
2023/03/27 07:03:08;;;;;;;;;;;5.50;97.20;;;;;;5065159;28;19913;-68
2023/03/27 07:05:35;;;;;;;;;;;5.50;97.20;;;;;;5064850;28;19912;-68
2023/03/27 07:08:05;;;;;;;;;;;5.50;97.20;;;;;;5065121;28;19912;-67
2023/03/27 07:10:31;;;;;;;;;;;5.50;97.10;;;;;;5067564;28;19951;-68
2023/03/27 07:12:56;;;;;;;;;;;5.50;97.20;;;;;;5068119;28;20614;-67
2023/03/27 07:15:23;;;;;;;;;;;5.60;97.20;;;;;;5070282;28;20012;-68
2023/03/27 07:17:55;;;;;;;;;;;5.60;97.10;;;;;;5069408;28;19991;-68
2023/03/27 07:20:22;;;;;;;;;;;5.60;97.20;;;;;;5074371;28;19923;-67
2023/03/27 07:22:48;;;;;;;;;;;5.60;97.20;;;;;;5060091;28;19991;-68
2023/03/27 07:25:13;;;;;;;;;;;5.60;97.00;;;;;;5066428;28;19924;-67
2023/03/27 07:27:39;;;;;;;;;;;5.60;97.10;;;;;;5070143;28;19908;-67
2023/03/27 07:30:06;;;;;;;;;;;5.70;97.10;;;;;;5066026;28;19913;-67
2023/03/27 07:32:33;;;;;;;;;;;5.60;97.00;;;;;;5070206;28;20321;-68
2023/03/27 07:34:59;;;;;;;;;;;5.60;97.10;;;;;;5055036;28;19915;-66
2023/03/27 07:37:26;;;;;;;;;;;5.70;97.00;;;;;;5069811;28;20436;-67
2023/03/27 07:39:51;;;;;;;;;;;5.70;97.00;;;;;;5054699;28;20584;-67
2023/03/27 07:42:17;;;;;;;;;;;5.80;96.90;;;;;;5069247;28;19916;-68
2023/03/27 07:44:42;;;;;;;;;;;5.80;96.80;;;;;;5065845;28;20069;-67
2023/03/27 07:47:08;;;;;;;;;;;5.80;96.70;;;;;;5070127;28;19909;-67
2023/03/27 07:49:33;;;;;;;;;;;5.90;96.80;;;;;;5068254;28;19920;-67
2023/03/27 07:51:59;;;;;;;;;;;5.90;96.90;;;;;;5069355;28;19912;-67
2023/03/27 07:54:25;;;;;;;;;;;5.90;96.80;;;;;;5064681;28;19939;-67
2023/03/27 07:56:52;;;;;;;;;;;5.90;96.70;;;;;;5069633;28;19912;-67
2023/03/27 07:59:19;;;;;;;;;;;6.00;96.60;;;;;;5065397;28;19916;-67
2023/03/27 08:01:45;;;;;;;;;;;6.10;96.60;;;;;;5069296;28;19951;-67
2023/03/27 08:04:10;;;;;;;;;;;6.10;96.60;;;;;;5065480;28;19913;-67
2023/03/27 08:06:36;;;;;;;;;;;6.10;96.60;;;;;;5069724;28;19913;-67
2023/03/27 08:09:04;;;;;;;;;;;6.20;96.60;;;;;;5065272;28;20370;-67
2023/03/27 08:11:29;;;;;;;;;;;6.20;96.60;;;;;;5068161;28;19919;-67
2023/03/27 08:13:55;;;;;;;;;;;6.30;96.50;;;;;;5065642;28;20280;-67
2023/03/27 08:16:20;;;;;;;;;;;6.30;96.40;;;;;;5068890;28;19931;-67
2023/03/27 08:18:46;;;;;;;;;;;6.30;96.50;;;;;;5067384;28;20444;-67
2023/03/27 08:21:12;;;;;;;;;;;6.40;96.60;;;;;;5065973;28;20331;-67
2023/03/27 08:23:38;;;;;;;;;;;6.50;96.50;;;;;;5066783;28;19923;-67
2023/03/27 08:26:04;;;;;;;;;;;6.50;96.30;;;;;;5066801;28;19913;-67
2023/03/27 08:28:31;;;;;;;;;;;6.50;96.30;;;;;;5054539;28;19913;-67
2023/03/27 08:30:57;;;;;;;;;;;6.50;96.30;;;;;;5067513;28;19916;-67
2023/03/27 08:33:23;;;;;;;;;;;6.60;96.40;;;;;;5076962;28;20537;-67
2023/03/27 08:35:49;;;;;;;;;;;6.60;96.30;;;;;;5039978;28;19913;-67
2023/03/27 08:38:15;;;;;;;;;;;6.70;96.20;;;;;;5065541;28;20387;-67
2023/03/27 08:40:46;;;;;;;;;;;6.70;96.30;;;;;;5053520;28;20050;-67
2023/03/27 08:43:15;;;;;;;;;;;6.70;96.10;;;;;;5067086;28;19967;-67
2023/03/27 08:45:53;;;;;;;;;;;6.70;96.20;;;;;;5059523;28;19924;-67
2023/03/27 08:48:20;;;;;;;;;;;6.70;96.20;;;;;;5075034;28;20358;-67
2023/03/27 08:50:58;;;;;;;;;;;6.70;96.20;;;;;;5077656;28;19917;-67
2023/03/27 08:53:26;;;;;;;;;;;6.70;96.40;;;;;;5074204;28;20006;-67
2023/03/27 08:55:52;;;;;;;;;;;6.70;96.40;;;;;;5077972;28;19915;-67
2023/03/27 08:58:19;;;;;;;;;;;6.80;96.30;;;;;;5076375;28;19909;-67
2023/03/27 09:00:46;;;;;;;;;;;6.80;96.10;;;;;;5076994;28;19916;-67
2023/03/27 09:03:39;;;;;;;;;;;6.80;96.10;;;;;;5073611;28;19987;-67
2023/03/27 09:06:08;;;;;;;;;;;6.80;96.20;;;;;;5038796;28;19942;-67
2023/03/27 09:08:53;;;;;;;;;;;6.90;96.10;;;;;;5076318;28;19909;-67
2023/03/27 09:11:35;;;;;;;;;;;6.90;96.20;;;;;;5072054;28;19967;-67
2023/03/27 09:14:05;;;;;;;;;;;7.00;96.10;;;;;;5063199;28;19912;-67
2023/03/27 09:16:33;;;;;;;;;;;6.90;96.10;;;;;;5068301;28;19966;-67
2023/03/27 09:19:05;;;;;;;;;;;7.00;96.00;;;;;;5063919;28;19920;-67
2023/03/27 09:21:30;;;;;;;;;;;7.00;95.80;;;;;;5077102;28;19970;-67
2023/03/27 09:24:00;;;;;;;;;;;7.10;95.90;;;;;;5073825;28;19925;-67
2023/03/27 09:26:34;;;;;;;;;;;7.10;95.80;;;;;;5076896;28;19916;-67
2023/03/27 09:29:09;;;;;;;;;;;7.10;95.80;;;;;;5075614;28;20698;-67
2023/03/27 09:31:38;;;;;;;;;;;7.20;95.80;;;;;;5075115;28;20593;-67
2023/03/27 09:34:05;;;;;;;;;;;7.20;95.70;;;;;;5072555;28;19917;-67
2023/03/27 09:36:31;;;;;;;;;;;7.20;95.70;;;;;;5076023;28;20280;-67
2023/03/27 09:39:01;;;;;;;;;;;7.30;95.60;;;;;;5058005;28;19913;-67
2023/03/27 09:41:30;;;;;;;;;;;7.30;95.40;;;;;;5058765;28;20396;-67
2023/03/27 09:44:14;;;;;;;;;;;7.30;95.30;;;;;;5072428;28;19916;-67
2023/03/27 09:46:44;;;;;;;;;;;7.40;95.10;;;;;;5076212;28;20620;-67
2023/03/27 09:49:13;;;;;;;;;;;7.40;95.10;;;;;;5072364;28;19947;-67
2023/03/27 09:51:38;;;;;;;;;;;7.30;95.00;;;;;;5076018;28;19919;-67
2023/03/27 09:54:05;;;;;;;;;;;7.30;95.30;;;;;;5057642;28;20257;-67
2023/03/27 09:56:34;;;;;;;;;;;7.30;95.50;;;;;;5075483;28;19974;-67
2023/03/27 09:59:06;;;;;;;;;;;7.30;95.40;;;;;;5072107;28;20350;-67
2023/03/27 10:01:36;;;;;;;;;;;7.30;95.30;;;;;;5074197;28;19908;-67
2023/03/27 10:04:28;;;;;;;;;;;7.40;95.30;;;;;;5050095;28;19943;-67
2023/03/27 10:07:06;;;;;;;;;;;7.40;95.00;;;;;;5065603;28;19912;-67
2023/03/27 10:09:36;;;;;;;;;;;7.50;94.60;;;;;;5058243;28;19924;-67
2023/03/27 10:12:22;;;;;;;;;;;7.60;94.50;;;;;;5065010;28;19962;-67
2023/03/27 10:14:48;;;;;;;;;;;7.50;94.50;;;;;;5066721;28;20396;-67
2023/03/27 10:17:25;;;;;;;;;;;7.50;94.80;;;;;;5074557;28;19916;-67
2023/03/27 10:19:51;;;;;;;;;;;7.50;94.90;;;;;;5072685;28;19912;-67
2023/03/27 10:22:20;;;;;;;;;;;7.40;95.20;;;;;;5074635;28;19909;-67
2023/03/27 10:24:46;;;;;;;;;;;7.50;95.20;;;;;;5072453;28;19916;-67
2023/03/27 10:27:17;;;;;;;;;;;7.60;94.90;;;;;;5073415;28;19966;-67
2023/03/27 10:29:43;;;;;;;;;;;7.60;94.70;;;;;;5055274;28;19912;-67
2023/03/27 10:32:09;;;;;;;;;;;7.50;94.90;;;;;;5074288;28;19915;-67
2023/03/27 10:34:35;;;;;;;;;;;7.50;94.90;;;;;;5074189;28;20590;-67
2023/03/27 10:37:02;;;;;;;;;;;7.50;95.00;;;;;;5074265;28;19924;-67
2023/03/27 10:39:28;;;;;;;;;;;7.50;95.00;;;;;;5072445;28;20458;-67
2023/03/27 10:41:55;;;;;;;;;;;7.60;94.70;;;;;;5074423;28;20121;-67
2023/03/27 10:44:24;;;;;;;;;;;7.70;94.60;;;;;;5074726;28;20000;-67
2023/03/27 10:46:51;;;;;;;;;;;7.60;94.70;;;;;;5078586;28;19912;-67
2023/03/27 10:49:19;;;;;;;;;;;7.60;94.80;;;;;;5076161;28;19995;-67
2023/03/27 10:51:51;;;;;;;;;;;7.60;94.80;;;;;;5079016;28;20338;-67
2023/03/27 10:54:31;;;;;;;;;;;7.70;94.60;;;;;;5076129;28;19919;-67
2023/03/27 10:57:01;;;;;;;;;;;7.70;94.40;;;;;;5078037;28;19913;-67
2023/03/27 10:59:53;;;;;;;;;;;7.80;94.30;;;;;;5074932;28;20472;-67
2023/03/27 11:02:22;;;;;;;;;;;7.90;94.20;;;;;;5074442;28;19947;-67
2023/03/27 11:04:54;;;;;;;;;;;8.00;94.10;;;;;;5076237;28;19920;-67
2023/03/27 11:07:39;;;;;;;;;;;8.00;94.10;;;;;;5077639;28;19912;-67
2023/03/27 11:10:05;;;;;;;;;;;8.10;94.20;;;;;;5075760;28;19912;-67
2023/03/27 11:12:32;;;;;;;;;;;8.20;94.20;;;;;;5077623;28;19979;-67
2023/03/27 11:15:01;;;;;;;;;;;8.20;94.00;;;;;;5074945;28;19912;-67
2023/03/27 11:17:45;;;;;;;;;;;8.30;93.80;;;;;;5074035;28;19983;-67
2023/03/27 11:20:16;;;;;;;;;;;8.40;93.80;;;;;;5076544;28;19919;-67
2023/03/27 11:22:44;;;;;;;;;;;8.50;93.60;;;;;;5077458;28;19916;-67
2023/03/27 11:25:28;;;;;;;;;;;8.60;93.30;;;;;;5075806;28;20276;-67
2023/03/27 11:28:00;;;;;;;;;;;8.60;93.30;;;;;;5067610;28;19913;-67
2023/03/27 11:30:33;;;;;;;;;;;8.60;93.40;;;;;;5079919;28;19920;-67
2023/03/27 11:33:04;;;;;;;;;;;8.60;93.70;;;;;;5073483;28;20014;-67
2023/03/27 11:35:35;;;;;;;;;;;8.50;93.70;;;;;;5071823;28;19912;-68
2023/03/27 11:38:22;;;;;;;;;;;8.60;93.70;;;;;;5058345;28;20305;-67
2023/03/27 11:40:48;;;;;;;;;;;8.70;93.60;;;;;;5066349;28;20015;-67
2023/03/27 11:43:17;;;;;;;;;;;8.80;93.80;;;;;;5068209;28;19915;-67
2023/03/27 11:45:47;;;;;;;;;;;8.80;93.40;;;;;;5067742;28;19960;-67
2023/03/27 11:48:12;;;;;;;;;;;8.70;93.50;;;;;;5057649;28;19916;-67
2023/03/27 11:50:49;;;;;;;;;;;8.70;93.80;;;;;;5067539;28;20003;-67
2023/03/27 11:53:17;;;;;;;;;;;8.70;93.90;;;;;;5067307;28;20011;-68
2023/03/27 11:56:12;;;;;;;;;;;8.70;94.00;;;;;;5067507;28;19940;-67
2023/03/27 11:58:39;;;;;;;;;;;8.70;94.10;;;;;;5038134;28;19913;-67
2023/03/27 12:01:11;;;;;;;;;;;8.60;94.30;;;;;;5067224;28;19912;-67
2023/03/27 12:03:40;;;;;;;;;;;8.50;94.60;;;;;;5067817;28;19912;-67
2023/03/27 12:06:31;;;;;;;;;;;8.50;94.50;;;;;;5067181;28;20649;-67
2023/03/27 12:09:12;;;;;;;;;;;8.50;94.50;;;;;;5054768;28;19908;-67
2023/03/27 12:11:44;;;;;;;;;;;8.50;94.60;;;;;;5063815;28;19962;-67
2023/03/27 12:14:24;;;;;;;;;;;8.40;94.80;;;;;;5074950;28;19919;-67
2023/03/27 12:17:07;;;;;;;;;;;8.40;94.80;;;;;;5076240;28;19923;-67
2023/03/27 12:19:48;;;;;;;;;;;8.40;95.00;;;;;;5074135;28;20038;-67
2023/03/27 12:22:23;;;;;;;;;;;8.30;95.20;;;;;;5077032;28;19924;-67
2023/03/27 12:24:57;;;;;;;;;;;8.20;95.20;;;;;;5059479;28;19916;-67
2023/03/27 12:27:33;;;;;;;;;;;8.30;95.40;;;;;;5080892;28;19912;-67
2023/03/27 12:30:20;;;;;;;;;;;8.40;95.10;;;;;;5076147;28;19913;-67
2023/03/27 12:33:05;;;;;;;;;;;8.40;94.40;;;;;;5069292;28;19918;-67
2023/03/27 12:35:33;;;;;;;;;;;8.50;94.60;;;;;;5075084;28;19957;-67
2023/03/27 12:38:00;;;;;;;;;;;8.60;94.30;;;;;;5077037;28;19916;-67
2023/03/27 12:40:32;;;;;;;;;;;8.70;94.20;;;;;;5076337;28;19912;-67
2023/03/27 12:43:21;;;;;;;;;;;8.70;94.20;;;;;;5073540;28;19912;-67
2023/03/27 12:46:05;;;;;;;;;;;8.70;94.00;;;;;;5060559;28;19924;-67
2023/03/27 12:48:30;;;;;;;;;;;8.90;93.90;;;;;;5076790;28;19919;-67
2023/03/27 12:50:56;;;;;;;;;;;8.90;94.10;;;;;;5061173;28;20305;-67
2023/03/27 12:53:28;;;;;;;;;;;8.90;94.00;;;;;;5075093;28;19923;-67
2023/03/27 12:56:11;;;;;;;;;;;8.90;94.00;;;;;;5075411;28;19913;-67
2023/03/27 12:58:37;;;;;;;;;;;8.90;94.20;;;;;;5059815;28;20432;-68
2023/03/27 13:01:06;;;;;;;;;;;8.90;94.40;;;;;;5066092;28;19913;-67
2023/03/27 13:03:38;;;;;;;;;;;8.90;94.70;;;;;;5066509;28;19923;-68
2023/03/27 13:06:17;;;;;;;;;;;8.80;94.30;;;;;;5065951;28;19915;-67
2023/03/27 14:22:13;;;;;;;;;;;8.70;94.00;;;;;;5077035;28;19920;-67
2023/03/27 14:24:40;;;;;;;;;;;8.70;94.10;;;;;;5072050;28;20005;-67
2023/03/27 14:27:09;;;;;;;;;;;8.70;93.90;;;;;;5050634;28;19917;-68
2023/03/27 14:29:35;;;;;;;;;;;8.80;94.20;;;;;;5080482;28;19974;-67
2023/03/27 14:32:02;;;;;;;;;;;8.80;94.50;;;;;;5078345;28;20601;-67
2023/03/27 14:34:33;;;;;;;;;;;8.80;94.50;;;;;;5075004;28;19959;-68
2023/03/27 14:37:00;;;;;;;;;;;8.80;94.40;;;;;;5068867;28;20015;-67
2023/03/27 14:39:27;;;;;;;;;;;8.90;94.60;;;;;;5069653;28;19913;-67
2023/03/27 14:41:52;;;;;;;;;;;8.90;93.90;;;;;;5068786;28;19917;-67
2023/03/27 14:44:19;;;;;;;;;;;9.00;93.40;;;;;;5067937;28;19970;-67
2023/03/27 14:46:47;;;;;;;;;;;9.00;93.10;;;;;;5068507;28;19917;-68
2023/03/27 14:49:22;;;;;;;;;;;9.10;92.80;;;;;;5069734;28;19913;-67
2023/03/27 14:51:51;;;;;;;;;;;9.20;92.60;;;;;;5069770;28;19919;-67
2023/03/27 14:54:25;;;;;;;;;;;9.40;92.30;;;;;;5052268;28;20325;-67
2023/03/27 14:56:51;;;;;;;;;;;9.50;92.20;;;;;;5065532;28;19913;-67
2023/03/27 14:59:19;;;;;;;;;;;9.60;92.00;;;;;;5068563;28;19943;-68
2023/03/27 15:01:46;;;;;;;;;;;9.50;92.50;;;;;;5069488;28;19912;-67
2023/03/27 15:04:12;;;;;;;;;;;9.50;92.60;;;;;;5069620;28;19943;-67
2023/03/27 15:06:38;;;;;;;;;;;9.40;92.80;;;;;;5068530;28;19923;-67
2023/03/27 15:09:11;;;;;;;;;;;9.30;93.00;;;;;;5066283;28;19921;-67
2023/03/27 15:11:37;;;;;;;;;;;9.20;93.20;;;;;;5069645;28;19921;-67
2023/03/27 15:14:03;;;;;;;;;;;9.20;93.70;;;;;;5068892;28;19919;-67
2023/03/27 15:16:31;;;;;;;;;;;9.10;94.10;;;;;;5087744;28;19911;-67
2023/03/27 15:19:03;;;;;;;;;;;9.10;93.90;;;;;;5090185;28;19955;-68
2023/03/27 15:21:37;;;;;;;;;;;9.00;93.90;;;;;;5089662;28;19937;-67
2023/03/27 15:24:06;;;;;;;;;;;9.00;94.10;;;;;;5071571;28;19924;-67
2023/03/27 15:26:33;;;;;;;;;;;9.00;94.40;;;;;;5051758;28;19920;-67
2023/03/27 15:29:06;;;;;;;;;;;8.90;94.30;;;;;;5078281;28;19943;-67
2023/03/27 15:31:33;;;;;;;;;;;8.90;94.30;;;;;;5089024;28;20319;-68
2023/03/27 15:34:02;;;;;;;;;;;8.80;94.50;;;;;;5080987;28;19920;-67
2023/03/27 15:36:28;;;;;;;;;;;8.80;94.00;;;;;;5081449;28;19923;-67
2023/03/27 15:38:57;;;;;;;;;;;8.70;94.10;;;;;;5089740;28;20269;-68
2023/03/27 15:41:23;;;;;;;;;;;8.70;94.20;;;;;;5072381;28;19913;-67
2023/03/27 15:43:50;;;;;;;;;;;8.70;94.20;;;;;;5051312;28;19965;-68
2023/03/27 15:46:19;;;;;;;;;;;8.70;94.40;;;;;;5069626;28;20601;-67
2023/03/27 15:48:48;;;;;;;;;;;8.60;94.60;;;;;;5067731;28;19908;-67
2023/03/27 15:51:19;;;;;;;;;;;8.60;94.70;;;;;;5068506;28;19912;-68
2023/03/27 15:53:46;;;;;;;;;;;8.50;94.60;;;;;;5068970;28;19920;-67
2023/03/27 15:56:12;;;;;;;;;;;8.50;94.50;;;;;;5069308;28;19944;-67